sensor_id;sensor_type;location;lat;lon;timestamp;pressure;altitude;pressure_sealevel;temperature;humidity
62011;BME280;47967;51.756;10.174;2023-05-24T04:01:10;100255.50;;;7.68;82.01
62011;BME280;47967;51.756;10.174;2023-05-24T04:05:33;100259.50;;;7.81;81.70
62011;BME280;47967;51.756;10.174;2023-05-24T04:09:37;100266.69;;;7.97;81.03
62011;BME280;47967;51.756;10.174;2023-05-24T04:13:40;100264.81;;;8.14;80.38
62011;BME280;47967;51.756;10.174;2023-05-24T04:17:44;100272.97;;;8.37;79.43
62011;BME280;47967;51.756;10.174;2023-05-24T04:21:49;100270.63;;;8.51;78.49
62011;BME280;47967;51.756;10.174;2023-05-24T04:25:52;100270.47;;;8.52;77.97
62011;BME280;47967;51.756;10.174;2023-05-24T04:29:54;100272.78;;;8.55;77.84
62011;BME280;47967;51.756;10.174;2023-05-24T04:33:58;100273.06;;;8.69;77.71
62011;BME280;47967;51.756;10.174;2023-05-24T04:38:01;100273.16;;;8.84;77.98
62011;BME280;47967;51.756;10.174;2023-05-24T04:42:04;100275.50;;;9.41;76.43
62011;BME280;47967;51.756;10.174;2023-05-24T04:46:07;100276.63;;;9.24;76.29
62011;BME280;47967;51.756;10.174;2023-05-24T04:50:11;100282.94;;;9.08;76.93
62011;BME280;47967;51.756;10.174;2023-05-24T04:54:14;100273.09;;;9.23;76.00
62011;BME280;47967;51.756;10.174;2023-05-24T04:58:18;100281.06;;;9.63;75.67
62011;BME280;47967;51.756;10.174;2023-05-24T05:02:21;100272.91;;;9.48;74.98
62011;BME280;47967;51.756;10.174;2023-05-24T05:06:25;100286.44;;;9.63;74.94
62011;BME280;47967;51.756;10.174;2023-05-24T05:10:28;100285.09;;;9.82;74.88
62011;BME280;47967;51.756;10.174;2023-05-24T05:14:30;100284.50;;;10.10;73.96
62011;BME280;47967;51.756;10.174;2023-05-24T05:18:33;100286.72;;;10.21;73.19
62011;BME280;47967;51.756;10.174;2023-05-24T05:22:37;100287.75;;;10.20;73.55
62011;BME280;47967;51.756;10.174;2023-05-24T05:26:39;100300.03;;;10.23;73.25
62011;BME280;47967;51.756;10.174;2023-05-24T05:30:42;100299.41;;;10.51;71.84
62011;BME280;47967;51.756;10.174;2023-05-24T05:34:45;100301.00;;;10.45;71.64
62011;BME280;47967;51.756;10.174;2023-05-24T05:38:48;100295.69;;;10.52;71.49
62011;BME280;47967;51.756;10.174;2023-05-24T05:42:51;100296.25;;;10.47;70.97
62011;BME280;47967;51.756;10.174;2023-05-24T05:46:53;100297.09;;;10.48;70.58
62011;BME280;47967;51.756;10.174;2023-05-24T05:50:56;100301.09;;;10.37;70.90
62011;BME280;47967;51.756;10.174;2023-05-24T05:55:00;100298.66;;;10.27;71.71
62011;BME280;47967;51.756;10.174;2023-05-24T05:59:02;100298.91;;;10.32;71.17
62011;BME280;47967;51.756;10.174;2023-05-24T06:03:05;100304.25;;;10.55;71.67
62011;BME280;47967;51.756;10.174;2023-05-24T06:07:08;100304.06;;;10.72;70.16
62011;BME280;47967;51.756;10.174;2023-05-24T06:11:12;100310.00;;;10.82;70.65
62011;BME280;47967;51.756;10.174;2023-05-24T06:15:14;100303.97;;;10.65;71.25
62011;BME280;47967;51.756;10.174;2023-05-24T06:19:17;100315.19;;;10.84;71.02
62011;BME280;47967;51.756;10.174;2023-05-24T06:23:19;100309.97;;;11.12;70.41
62011;BME280;47967;51.756;10.174;2023-05-24T06:27:23;100315.56;;;11.32;69.42
62011;BME280;47967;51.756;10.174;2023-05-24T06:31:26;100319.50;;;11.51;68.46
62011;BME280;47967;51.756;10.174;2023-05-24T06:35:29;100330.13;;;11.53;68.64
62011;BME280;47967;51.756;10.174;2023-05-24T06:39:31;100323.38;;;11.64;68.63
62011;BME280;47967;51.756;10.174;2023-05-24T06:43:35;100328.19;;;11.68;68.80
62011;BME280;47967;51.756;10.174;2023-05-24T06:47:38;100324.47;;;11.69;69.47
62011;BME280;47967;51.756;10.174;2023-05-24T06:51:42;100327.88;;;12.00;68.48
62011;BME280;47967;51.756;10.174;2023-05-24T06:55:49;100330.75;;;11.98;67.73
62011;BME280;47967;51.756;10.174;2023-05-24T06:59:53;100329.41;;;12.09;68.31
62011;BME280;47967;51.756;10.174;2023-05-24T07:03:55;100319.56;;;12.01;68.40
62011;BME280;47967;51.756;10.174;2023-05-24T07:07:58;100325.72;;;12.17;68.38
62011;BME280;47967;51.756;10.174;2023-05-24T07:12:00;100322.69;;;12.27;67.14
62011;BME280;47967;51.756;10.174;2023-05-24T07:16:05;100327.88;;;12.28;67.54
62011;BME280;47967;51.756;10.174;2023-05-24T07:20:09;100324.06;;;12.51;67.16
62011;BME280;47967;51.756;10.174;2023-05-24T07:24:14;100328.78;;;12.71;66.76
62011;BME280;47967;51.756;10.174;2023-05-24T07:28:17;100332.44;;;12.56;67.49
62011;BME280;47967;51.756;10.174;2023-05-24T07:32:22;100343.28;;;12.63;65.92
62011;BME280;47967;51.756;10.174;2023-05-24T07:36:24;100338.28;;;12.60;66.08
62011;BME280;47967;51.756;10.174;2023-05-24T07:40:27;100335.84;;;12.72;66.36
62011;BME280;47967;51.756;10.174;2023-05-24T07:44:29;100340.88;;;12.75;65.64
62011;BME280;47967;51.756;10.174;2023-05-24T07:48:33;100344.44;;;12.47;66.80
62011;BME280;47967;51.756;10.174;2023-05-24T07:52:36;100341.38;;;12.98;65.72
62011;BME280;47967;51.756;10.174;2023-05-24T07:56:40;100343.53;;;13.10;65.21
62011;BME280;47967;51.756;10.174;2023-05-24T08:00:42;100332.06;;;14.10;63.25
62011;BME280;47967;51.756;10.174;2023-05-24T08:04:47;100333.28;;;14.34;62.28
62011;BME280;47967;51.756;10.174;2023-05-24T08:08:49;100335.97;;;14.48;61.12
62011;BME280;47967;51.756;10.174;2023-05-24T08:12:52;100337.81;;;14.61;60.33
62011;BME280;47967;51.756;10.174;2023-05-24T08:16:56;100341.69;;;14.98;59.56
62011;BME280;47967;51.756;10.174;2023-05-24T08:21:02;100341.25;;;15.08;58.12
62011;BME280;47967;51.756;10.174;2023-05-24T08:25:05;100339.91;;;14.58;58.06
62011;BME280;47967;51.756;10.174;2023-05-24T08:29:08;100335.91;;;14.81;58.85
62011;BME280;47967;51.756;10.174;2023-05-24T08:33:11;100350.13;;;15.29;58.19
62011;BME280;47967;51.756;10.174;2023-05-24T08:37:15;100339.72;;;15.19;57.56
62011;BME280;47967;51.756;10.174;2023-05-24T08:41:19;100341.66;;;15.50;56.90
62011;BME280;47967;51.756;10.174;2023-05-24T08:45:25;100334.50;;;15.56;56.39
62011;BME280;47967;51.756;10.174;2023-05-24T08:49:28;100336.31;;;15.37;56.53
62011;BME280;47967;51.756;10.174;2023-05-24T08:53:36;100341.50;;;15.45;56.91
62011;BME280;47967;51.756;10.174;2023-05-24T08:57:39;100328.63;;;16.16;56.25
62011;BME280;47967;51.756;10.174;2023-05-24T09:01:43;100320.72;;;16.33;56.01
62011;BME280;47967;51.756;10.174;2023-05-24T09:05:46;100322.28;;;16.23;56.06
62011;BME280;47967;51.756;10.174;2023-05-24T09:09:56;100330.44;;;16.48;55.04
62011;BME280;47967;51.756;10.174;2023-05-24T09:13:59;100335.38;;;16.58;53.95
62011;BME280;47967;51.756;10.174;2023-05-24T09:18:03;100334.59;;;16.32;55.52
62011;BME280;47967;51.756;10.174;2023-05-24T09:22:06;100337.59;;;16.42;55.37
62011;BME280;47967;51.756;10.174;2023-05-24T09:26:09;100350.03;;;16.75;53.69
62011;BME280;47967;51.756;10.174;2023-05-24T09:30:13;100347.84;;;17.82;51.36
62011;BME280;47967;51.756;10.174;2023-05-24T09:34:16;100342.91;;;17.60;50.28
62011;BME280;47967;51.756;10.174;2023-05-24T09:38:19;100348.78;;;17.88;49.66
62011;BME280;47967;51.756;10.174;2023-05-24T09:42:24;100343.28;;;18.18;49.26
62011;BME280;47967;51.756;10.174;2023-05-24T09:46:34;100340.44;;;18.37;48.49
62011;BME280;47967;51.756;10.174;2023-05-24T09:50:38;100343.50;;;18.05;47.99
62011;BME280;47967;51.756;10.174;2023-05-24T09:54:41;100366.63;;;15.73;50.33
62011;BME280;47967;51.756;10.174;2023-05-24T09:58:45;100355.59;;;15.61;50.55
62011;BME280;47967;51.756;10.174;2023-05-24T10:02:59;100360.00;;;15.94;50.42
62011;BME280;47967;51.756;10.174;2023-05-24T10:07:02;100352.00;;;16.68;49.55
62011;BME280;47967;51.756;10.174;2023-05-24T10:11:06;100345.34;;;16.83;49.28
62011;BME280;47967;51.756;10.174;2023-05-24T10:15:10;100350.34;;;16.67;48.04
62011;BME280;47967;51.756;10.174;2023-05-24T10:19:13;100347.44;;;16.43;47.89
62011;BME280;47967;51.756;10.174;2023-05-24T10:23:19;100365.94;;;15.84;49.69
62011;BME280;47967;51.756;10.174;2023-05-24T10:27:27;100361.59;;;15.69;51.27
62011;BME280;47967;51.756;10.174;2023-05-24T10:31:36;100368.53;;;15.33;52.89
62011;BME280;47967;51.756;10.174;2023-05-24T10:35:40;100370.91;;;15.16;54.83
62011;BME280;47967;51.756;10.174;2023-05-24T10:39:43;100350.72;;;14.85;55.20
62011;BME280;47967;51.756;10.174;2023-05-24T10:43:46;100355.28;;;15.05;55.11
62011;BME280;47967;51.756;10.174;2023-05-24T10:53:10;100351.75;;;15.75;52.43
62011;BME280;47967;51.756;10.174;2023-05-24T10:57:21;100359.41;;;15.14;53.03
62011;BME280;47967;51.756;10.174;2023-05-24T11:01:25;100353.78;;;15.02;53.29
62011;BME280;47967;51.756;10.174;2023-05-24T11:05:33;100362.13;;;15.14;56.13
62011;BME280;47967;51.756;10.174;2023-05-24T11:09:38;100372.53;;;15.63;55.43
62011;BME280;47967;51.756;10.174;2023-05-24T11:13:46;100374.84;;;15.20;55.15
62011;BME280;47967;51.756;10.174;2023-05-24T11:22:13;100364.47;;;15.04;57.01
62011;BME280;47967;51.756;10.174;2023-05-24T11:26:17;100374.84;;;15.27;56.77
62011;BME280;47967;51.756;10.174;2023-05-24T11:30:20;100386.41;;;15.09;56.08
62011;BME280;47967;51.756;10.174;2023-05-24T11:34:23;100387.72;;;14.86;57.42
62011;BME280;47967;51.756;10.174;2023-05-24T11:38:27;100401.75;;;14.70;57.06
62011;BME280;47967;51.756;10.174;2023-05-24T11:42:32;100395.47;;;14.56;57.77
62011;BME280;47967;51.756;10.174;2023-05-24T11:46:35;100383.56;;;14.77;56.75
62011;BME280;47967;51.756;10.174;2023-05-24T11:50:40;100376.34;;;15.16;56.74
62011;BME280;47967;51.756;10.174;2023-05-24T11:54:50;100368.47;;;15.47;57.46
62011;BME280;47967;51.756;10.174;2023-05-24T11:59:04;100372.16;;;15.59;56.35
62011;BME280;47967;51.756;10.174;2023-05-24T12:03:09;100366.88;;;16.72;54.49
62011;BME280;47967;51.756;10.174;2023-05-24T12:07:13;100374.03;;;16.48;52.74
62011;BME280;47967;51.756;10.174;2023-05-24T12:11:17;100374.97;;;15.78;52.75
62011;BME280;47967;51.756;10.174;2023-05-24T12:15:21;100368.66;;;15.84;54.11
62011;BME280;47967;51.756;10.174;2023-05-24T12:19:24;100367.28;;;15.68;54.77
62011;BME280;47967;51.756;10.174;2023-05-24T12:23:34;100361.75;;;15.81;55.90
62011;BME280;47967;51.756;10.174;2023-05-24T12:27:41;100376.41;;;15.80;55.44
62011;BME280;47967;51.756;10.174;2023-05-24T12:31:49;100363.03;;;16.36;52.32
62011;BME280;47967;51.756;10.174;2023-05-24T12:35:53;100370.44;;;16.47;52.12
62011;BME280;47967;51.756;10.174;2023-05-24T12:39:58;100361.75;;;15.88;56.42
62011;BME280;47967;51.756;10.174;2023-05-24T12:44:01;100363.72;;;15.29;57.93
62011;BME280;47967;51.756;10.174;2023-05-24T12:48:06;100358.06;;;15.30;58.01
62011;BME280;47967;51.756;10.174;2023-05-24T12:52:09;100366.31;;;15.56;56.77
62011;BME280;47967;51.756;10.174;2023-05-24T12:56:13;100372.72;;;16.00;56.04
62011;BME280;47967;51.756;10.174;2023-05-24T13:00:15;100352.78;;;16.31;54.61
62011;BME280;47967;51.756;10.174;2023-05-24T13:04:21;100360.28;;;16.80;54.29
62011;BME280;47967;51.756;10.174;2023-05-24T13:08:24;100349.81;;;16.58;54.14
62011;BME280;47967;51.756;10.174;2023-05-24T13:12:29;100360.66;;;17.02;54.06
62011;BME280;47967;51.756;10.174;2023-05-24T13:16:32;100353.94;;;17.05;54.55
62011;BME280;47967;51.756;10.174;2023-05-24T13:20:37;100355.88;;;16.79;54.68
62011;BME280;47967;51.756;10.174;2023-05-24T13:24:40;100354.03;;;16.36;51.99
62011;BME280;47967;51.756;10.174;2023-05-24T13:28:42;100360.75;;;16.08;53.67
62011;BME280;47967;51.756;10.174;2023-05-24T13:33:05;100360.13;;;15.74;55.28
62011;BME280;47967;51.756;10.174;2023-05-24T13:37:09;100360.63;;;15.64;56.23
62011;BME280;47967;51.756;10.174;2023-05-24T13:41:12;100367.50;;;15.28;55.55
62011;BME280;47967;51.756;10.174;2023-05-24T13:45:15;100362.63;;;15.75;55.23
62011;BME280;47967;51.756;10.174;2023-05-24T13:49:17;100361.03;;;15.61;55.43
62011;BME280;47967;51.756;10.174;2023-05-24T13:53:21;100362.00;;;14.96;58.36
62011;BME280;47967;51.756;10.174;2023-05-24T13:57:24;100361.53;;;15.05;59.37
62011;BME280;47967;51.756;10.174;2023-05-24T14:01:43;100360.09;;;15.03;61.23
62011;BME280;47967;51.756;10.174;2023-05-24T14:05:46;100362.25;;;15.33;61.43
62011;BME280;47967;51.756;10.174;2023-05-24T14:09:50;100365.94;;;15.07;60.78
62011;BME280;47967;51.756;10.174;2023-05-24T14:13:53;100373.53;;;14.84;61.08
62011;BME280;47967;51.756;10.174;2023-05-24T14:18:15;100376.84;;;15.39;61.39
62011;BME280;47967;51.756;10.174;2023-05-24T14:22:18;100375.03;;;15.64;60.22
62011;BME280;47967;51.756;10.174;2023-05-24T14:26:24;100372.22;;;16.60;58.94
62011;BME280;47967;51.756;10.174;2023-05-24T14:30:30;100378.97;;;16.76;56.00
62011;BME280;47967;51.756;10.174;2023-05-24T14:34:33;100382.63;;;17.07;55.90
62011;BME280;47967;51.756;10.174;2023-05-24T14:38:35;100377.19;;;16.63;55.24
62011;BME280;47967;51.756;10.174;2023-05-24T14:42:39;100376.38;;;16.81;54.44
62011;BME280;47967;51.756;10.174;2023-05-24T14:46:42;100384.03;;;17.47;53.96
62011;BME280;47967;51.756;10.174;2023-05-24T14:50:45;100386.06;;;17.33;52.81
62011;BME280;47967;51.756;10.174;2023-05-24T14:54:47;100384.09;;;17.40;53.82
62011;BME280;47967;51.756;10.174;2023-05-24T14:58:51;100378.59;;;17.89;52.66
62011;BME280;47967;51.756;10.174;2023-05-24T15:02:55;100382.59;;;17.87;53.44
62011;BME280;47967;51.756;10.174;2023-05-24T15:06:58;100378.69;;;17.22;55.18
62011;BME280;47967;51.756;10.174;2023-05-24T15:11:01;100380.97;;;17.86;53.62
62011;BME280;47967;51.756;10.174;2023-05-24T15:15:05;100390.34;;;17.59;52.90
62011;BME280;47967;51.756;10.174;2023-05-24T15:19:09;100384.00;;;17.17;52.12
62011;BME280;47967;51.756;10.174;2023-05-24T15:23:13;100389.84;;;17.51;52.84
62011;BME280;47967;51.756;10.174;2023-05-24T15:27:15;100382.84;;;17.85;52.88
62011;BME280;47967;51.756;10.174;2023-05-24T15:31:19;100387.38;;;17.49;52.36
62011;BME280;47967;51.756;10.174;2023-05-24T15:35:22;100382.78;;;18.04;51.65
62011;BME280;47967;51.756;10.174;2023-05-24T15:39:25;100370.00;;;18.64;51.17
62011;BME280;47967;51.756;10.174;2023-05-24T15:43:28;100373.00;;;18.38;51.03
62011;BME280;47967;51.756;10.174;2023-05-24T15:47:32;100358.59;;;18.55;49.51
62011;BME280;47967;51.756;10.174;2023-05-24T15:51:39;100359.97;;;19.17;48.72
62011;BME280;47967;51.756;10.174;2023-05-24T15:55:45;100365.97;;;19.60;49.07
62011;BME280;47967;51.756;10.174;2023-05-24T15:59:48;100369.41;;;21.31;46.28
62011;BME280;47967;51.756;10.174;2023-05-24T16:03:52;100378.69;;;20.29;47.42
62011;BME280;47967;51.756;10.174;2023-05-24T16:07:55;100375.28;;;19.76;47.61
62011;BME280;47967;51.756;10.174;2023-05-24T16:11:57;100367.81;;;20.34;47.07
62011;BME280;47967;51.756;10.174;2023-05-24T16:16:01;100368.19;;;20.77;45.24
62011;BME280;47967;51.756;10.174;2023-05-24T16:20:06;100372.69;;;19.98;46.51
62011;BME280;47967;51.756;10.174;2023-05-24T16:24:09;100368.25;;;19.22;49.09
62011;BME280;47967;51.756;10.174;2023-05-24T16:28:11;100370.69;;;18.83;49.16
62011;BME280;47967;51.756;10.174;2023-05-24T16:32:14;100363.09;;;18.85;50.36
62011;BME280;47967;51.756;10.174;2023-05-24T16:36:18;100369.75;;;19.01;50.82
62011;BME280;47967;51.756;10.174;2023-05-24T16:40:21;100369.78;;;18.42;50.44
62011;BME280;47967;51.756;10.174;2023-05-24T16:44:24;100367.28;;;18.40;51.20
62011;BME280;47967;51.756;10.174;2023-05-24T16:48:26;100370.63;;;17.88;51.55
62011;BME280;47967;51.756;10.174;2023-05-24T16:52:32;100371.09;;;17.85;53.04
62011;BME280;47967;51.756;10.174;2023-05-24T16:56:35;100362.44;;;17.88;52.68
62011;BME280;47967;51.756;10.174;2023-05-24T17:00:38;100351.00;;;18.45;52.65
62011;BME280;47967;51.756;10.174;2023-05-24T17:04:41;100358.84;;;18.65;50.92
62011;BME280;47967;51.756;10.174;2023-05-24T17:08:45;100367.41;;;18.69;50.87
62011;BME280;47967;51.756;10.174;2023-05-24T17:12:47;100365.41;;;19.75;49.18
62011;BME280;47967;51.756;10.174;2023-05-24T17:16:50;100370.00;;;18.99;48.51
62011;BME280;47967;51.756;10.174;2023-05-24T17:20:53;100367.88;;;18.78;49.25
62011;BME280;47967;51.756;10.174;2023-05-24T17:24:57;100368.22;;;19.34;48.57
62011;BME280;47967;51.756;10.174;2023-05-24T17:28:59;100362.84;;;18.86;48.76
62011;BME280;47967;51.756;10.174;2023-05-24T17:33:02;100372.59;;;17.99;50.48
62011;BME280;47967;51.756;10.174;2023-05-24T17:37:05;100368.34;;;17.42;51.56
62011;BME280;47967;51.756;10.174;2023-05-24T17:41:09;100370.47;;;16.66;54.35
62011;BME280;47967;51.756;10.174;2023-05-24T17:45:11;100375.13;;;16.40;55.92
62011;BME280;47967;51.756;10.174;2023-05-24T17:49:15;100379.34;;;16.36;56.38
62011;BME280;47967;51.756;10.174;2023-05-24T17:53:17;100382.84;;;16.43;56.44
62011;BME280;47967;51.756;10.174;2023-05-24T17:57:33;100384.44;;;16.95;55.52
62011;BME280;47967;51.756;10.174;2023-05-24T18:01:36;100385.97;;;17.09;54.54
62011;BME280;47967;51.756;10.174;2023-05-24T18:05:38;100384.75;;;17.05;54.22
62011;BME280;47967;51.756;10.174;2023-05-24T18:09:42;100390.34;;;17.29;54.49
62011;BME280;47967;51.756;10.174;2023-05-24T18:13:45;100393.63;;;17.01;54.90
62011;BME280;47967;51.756;10.174;2023-05-24T18:17:48;100391.34;;;16.54;56.10
62011;BME280;47967;51.756;10.174;2023-05-24T18:21:50;100401.03;;;16.24;57.28
62011;BME280;47967;51.756;10.174;2023-05-24T18:25:53;100396.63;;;15.98;58.00
62011;BME280;47967;51.756;10.174;2023-05-24T18:30:04;100401.72;;;15.42;59.68
62011;BME280;47967;51.756;10.174;2023-05-24T18:34:08;100406.66;;;15.20;60.36
62011;BME280;47967;51.756;10.174;2023-05-24T18:38:10;100406.00;;;15.25;61.06
62011;BME280;47967;51.756;10.174;2023-05-24T18:42:13;100412.63;;;15.42;61.01
62011;BME280;47967;51.756;10.174;2023-05-24T18:46:17;100404.34;;;15.24;61.64
62011;BME280;47967;51.756;10.174;2023-05-24T18:50:20;100418.00;;;14.97;62.56
62011;BME280;47967;51.756;10.174;2023-05-24T18:54:23;100409.28;;;14.68;64.28
62011;BME280;47967;51.756;10.174;2023-05-24T18:58:26;100414.91;;;14.53;65.25
62011;BME280;47967;51.756;10.174;2023-05-24T19:02:30;100417.63;;;14.19;66.93
62011;BME280;47967;51.756;10.174;2023-05-24T19:06:35;100425.34;;;14.09;67.82
62011;BME280;47967;51.756;10.174;2023-05-24T19:10:37;100428.00;;;13.82;68.79
62011;BME280;47967;51.756;10.174;2023-05-24T19:14:40;100425.91;;;13.77;68.92
62011;BME280;47967;51.756;10.174;2023-05-24T19:18:44;100425.69;;;13.72;69.22
62011;BME280;47967;51.756;10.174;2023-05-24T19:22:47;100434.88;;;13.65;69.62
62011;BME280;47967;51.756;10.174;2023-05-24T19:26:49;100437.97;;;13.68;69.61
62011;BME280;47967;51.756;10.174;2023-05-24T19:30:52;100441.72;;;13.60;70.67
62011;BME280;47967;51.756;10.174;2023-05-24T19:34:56;100450.50;;;13.69;70.39
62011;BME280;47967;51.756;10.174;2023-05-24T19:38:58;100450.72;;;13.68;70.26
62011;BME280;47967;51.756;10.174;2023-05-24T19:43:01;100454.25;;;13.61;70.58
62011;BME280;47967;51.756;10.174;2023-05-24T19:47:04;100460.88;;;13.52;70.63
62011;BME280;47967;51.756;10.174;2023-05-24T19:51:08;100462.72;;;13.45;71.16
62011;BME280;47967;51.756;10.174;2023-05-24T19:55:13;100474.84;;;13.49;71.13
62011;BME280;47967;51.756;10.174;2023-05-24T19:59:15;100482.31;;;13.40;71.35
62011;BME280;47967;51.756;10.174;2023-05-24T20:03:18;100477.41;;;13.29;71.74
62011;BME280;47967;51.756;10.174;2023-05-24T20:07:22;100483.56;;;13.09;72.54
62011;BME280;47967;51.756;10.174;2023-05-24T20:11:25;100484.31;;;12.96;72.96
62011;BME280;47967;51.756;10.174;2023-05-24T20:15:28;100492.81;;;12.93;73.56
62011;BME280;47967;51.756;10.174;2023-05-24T20:19:30;100498.78;;;13.10;73.61
62011;BME280;47967;51.756;10.174;2023-05-24T20:23:34;100505.25;;;13.44;72.78
62011;BME280;47967;51.756;10.174;2023-05-24T20:27:38;100494.09;;;13.61;72.72
62011;BME280;47967;51.756;10.174;2023-05-24T20:31:41;100503.91;;;13.69;72.92
62011;BME280;47967;51.756;10.174;2023-05-24T20:35:44;100511.56;;;13.58;73.09
62011;BME280;47967;51.756;10.174;2023-05-24T20:39:48;100505.75;;;13.68;72.83
62011;BME280;47967;51.756;10.174;2023-05-24T20:43:51;100514.53;;;13.70;72.90
62011;BME280;47967;51.756;10.174;2023-05-24T20:47:53;100512.47;;;13.72;72.85
62011;BME280;47967;51.756;10.174;2023-05-24T20:51:56;100513.50;;;13.71;72.99
62011;BME280;47967;51.756;10.174;2023-05-24T20:56:00;100513.06;;;13.68;72.86
